createdAt,value
2023-03-20T00:02:23.031Z,14.80
2023-03-20T00:12:17.941Z,14.70
2023-03-20T00:17:20.193Z,14.70
2023-03-20T00:27:16.719Z,14.70
2023-03-20T00:29:44.227Z,14.70
2023-03-20T00:32:15.299Z,14.60
2023-03-20T00:34:42.877Z,14.60
2023-03-20T00:37:11.780Z,14.60
2023-03-20T00:42:07.660Z,14.60
2023-03-20T00:47:16.882Z,14.60
2023-03-20T00:49:45.785Z,14.60
2023-03-20T00:52:12.804Z,14.60
2023-03-20T00:57:20.660Z,14.60
2023-03-20T00:59:54.147Z,14.50
2023-03-20T01:02:23.816Z,14.60
2023-03-20T01:04:50.829Z,14.50
2023-03-20T01:09:47.233Z,14.50
2023-03-20T01:12:15.432Z,14.50
2023-03-20T01:14:44.329Z,14.50
2023-03-20T01:17:18.720Z,14.50
2023-03-20T01:22:18.173Z,14.50
2023-03-20T01:27:15.493Z,14.40
2023-03-20T01:32:13.645Z,14.40
2023-03-20T01:34:40.938Z,14.40
2023-03-20T01:37:13.809Z,12.00
2023-03-20T01:42:08.508Z,14.40
2023-03-20T01:44:36.492Z,14.40
2023-03-20T01:47:15.847Z,14.40
2023-03-20T01:50:01.840Z,14.40
2023-03-20T01:54:56.580Z,14.40
2023-03-20T01:57:25.425Z,14.40
2023-03-20T02:02:28.490Z,14.40
2023-03-20T02:05:01.428Z,14.40
2023-03-20T02:10:03.640Z,14.40
2023-03-20T02:15:11.648Z,14.40
2023-03-20T02:18:04.456Z,14.40
2023-03-20T02:21:02.539Z,14.40
2023-03-20T02:24:09.733Z,14.40
2023-03-20T02:27:10.535Z,14.40
2023-03-20T02:30:02.539Z,14.40
2023-03-20T02:32:41.575Z,14.40
2023-03-20T02:35:23.203Z,14.30
2023-03-20T02:38:09.552Z,14.40
2023-03-20T02:41:25.057Z,14.30
2023-03-20T02:46:36.682Z,14.30
2023-03-20T02:49:30.838Z,14.30
2023-03-20T02:52:37.518Z,14.30
2023-03-20T02:55:16.104Z,14.30
2023-03-20T02:57:58.553Z,14.30
2023-03-20T03:00:58.147Z,14.30
2023-03-20T03:05:56.266Z,14.20
2023-03-20T03:08:28.632Z,14.20
2023-03-20T03:11:08.655Z,14.20
2023-03-20T03:13:44.943Z,14.20
2023-03-20T03:16:18.860Z,14.20
2023-03-20T03:18:46.791Z,14.20
2023-03-20T03:21:17.508Z,14.20
2023-03-20T03:23:49.058Z,14.10
2023-03-20T03:26:28.825Z,14.20
2023-03-20T03:29:01.851Z,14.20
2023-03-20T03:31:30.173Z,14.20
2023-03-20T03:33:59.912Z,14.20
2023-03-20T03:37:01.650Z,14.20
2023-03-20T03:39:39.844Z,14.20
2023-03-20T03:42:18.224Z,14.20
2023-03-20T03:44:54.076Z,14.20
2023-03-20T03:47:29.150Z,14.20
2023-03-20T03:50:02.599Z,14.00
2023-03-20T03:52:32.785Z,14.20
2023-03-20T03:55:05.964Z,14.20
2023-03-20T03:57:59.241Z,14.20
2023-03-20T04:00:28.008Z,14.10
2023-03-20T04:02:57.598Z,14.20
2023-03-20T04:05:31.556Z,14.20
2023-03-20T04:08:01.286Z,14.10
2023-03-20T04:12:55.529Z,14.10
2023-03-20T04:25:22.647Z,14.20
2023-03-20T04:53:26.992Z,14.30
2023-03-20T04:58:22.438Z,14.30
2023-03-20T05:08:12.789Z,14.30
2023-03-20T05:10:40.362Z,14.30
2023-03-20T05:18:44.209Z,14.30
2023-03-20T05:27:13.044Z,14.30
2023-03-20T06:03:03.502Z,14.40
2023-03-20T06:05:56.186Z,14.40
2023-03-20T06:10:51.974Z,14.30
2023-03-20T06:13:19.035Z,14.40
2023-03-20T06:25:40.558Z,14.40
2023-03-20T06:33:04.095Z,14.40
2023-03-20T06:40:34.045Z,14.40
2023-03-20T06:45:39.357Z,14.40
2023-03-20T06:50:53.030Z,14.40
2023-03-20T07:01:13.778Z,14.40
2023-03-20T07:03:41.318Z,14.40
2023-03-20T07:06:11.743Z,14.40
2023-03-20T07:11:07.172Z,14.40
2023-03-20T07:16:11.653Z,14.30
2023-03-20T07:18:41.107Z,14.30
2023-03-20T07:21:08.977Z,14.30
2023-03-20T07:26:05.465Z,14.30
2023-03-20T07:31:24.951Z,14.20
2023-03-20T07:36:36.086Z,14.20
2023-03-20T07:39:03.348Z,14.30
2023-03-20T07:49:20.401Z,14.20
2023-03-20T07:51:48.663Z,14.20
2023-03-20T07:56:43.224Z,14.20
2023-03-20T08:09:00.180Z,14.20
2023-03-20T08:11:27.102Z,14.20
2023-03-20T08:16:21.308Z,14.20
2023-03-20T08:33:44.553Z,14.10
2023-03-20T08:41:07.856Z,14.10
2023-03-20T08:55:53.650Z,14.10
2023-03-20T08:58:21.572Z,14.10
2023-03-20T09:03:18.275Z,14.10
2023-03-20T09:05:46.952Z,14.10
2023-03-20T09:10:41.951Z,14.10
2023-03-20T09:13:25.852Z,14.10
2023-03-20T09:18:22.040Z,14.10
2023-03-20T09:33:06.644Z,14.20
2023-03-20T09:40:47.242Z,14.10
2023-03-20T09:43:31.882Z,14.20
2023-03-20T09:48:48.901Z,14.20
2023-03-20T09:51:31.952Z,14.20
2023-03-20T09:54:27.258Z,14.30
2023-03-20T09:56:56.438Z,14.30
2023-03-20T09:59:26.186Z,14.40
2023-03-20T10:02:00.786Z,14.40
2023-03-20T10:04:30.002Z,14.50
2023-03-20T10:09:27.837Z,14.60
2023-03-20T10:12:04.814Z,14.60
2023-03-20T10:14:57.355Z,14.70
2023-03-20T10:17:36.117Z,14.70
2023-03-20T10:20:23.119Z,14.70
2023-03-20T10:23:03.612Z,14.90
2023-03-20T10:26:13.871Z,14.80
2023-03-20T10:28:46.698Z,15.00
2023-03-20T10:31:29.978Z,15.10
2023-03-20T10:36:50.529Z,15.20
2023-03-20T10:39:49.982Z,15.20
2023-03-20T10:42:24.591Z,15.30
2023-03-20T10:45:20.291Z,15.30
2023-03-20T10:47:51.934Z,15.30
2023-03-20T10:50:33.088Z,15.30
2023-03-20T10:53:01.921Z,15.40
2023-03-20T10:55:35.251Z,15.40
2023-03-20T10:58:11.782Z,15.40
2023-03-20T11:03:08.212Z,15.40
2023-03-20T11:05:36.993Z,15.40
2023-03-20T11:08:14.174Z,15.40
2023-03-20T11:10:43.225Z,15.40
2023-03-20T11:13:33.017Z,15.40
2023-03-20T11:16:09.688Z,15.30
2023-03-20T11:21:04.599Z,15.20
2023-03-20T11:23:35.676Z,15.40
2023-03-20T11:26:16.449Z,15.40
2023-03-20T11:28:50.283Z,15.50
2023-03-20T11:31:21.216Z,15.50
2023-03-20T11:34:07.807Z,15.50
2023-03-20T11:36:36.763Z,15.80
2023-03-20T11:39:11.175Z,15.70
2023-03-20T11:41:45.997Z,15.80
2023-03-20T11:44:29.506Z,15.80
2023-03-20T11:47:04.957Z,15.80
2023-03-20T11:49:47.862Z,15.90
2023-03-20T11:52:16.883Z,15.90
2023-03-20T11:54:50.807Z,16.00
2023-03-20T11:57:29.100Z,16.00
2023-03-20T11:59:56.280Z,15.90
2023-03-20T12:02:24.617Z,16.10
2023-03-20T12:07:35.298Z,15.00
2023-03-20T12:10:14.036Z,16.20
2023-03-20T12:12:59.700Z,16.20
2023-03-20T12:15:31.940Z,16.30
2023-03-20T12:20:43.457Z,16.40
2023-03-20T12:23:14.148Z,16.30
2023-03-20T12:26:03.217Z,16.50
2023-03-20T12:28:46.625Z,16.50
2023-03-20T12:31:38.614Z,16.60
2023-03-20T12:34:16.452Z,20.90
2023-03-20T12:36:47.712Z,16.60
2023-03-20T12:39:18.388Z,16.60
2023-03-20T12:42:18.471Z,16.60
2023-03-20T12:45:14.848Z,16.60
2023-03-20T12:47:44.796Z,16.70
2023-03-20T12:50:24.107Z,16.70
2023-03-20T12:53:09.035Z,16.70
2023-03-20T12:58:22.217Z,16.70
2023-03-20T13:00:52.261Z,16.80
2023-03-20T13:04:07.479Z,16.80
2023-03-20T13:06:46.441Z,16.80
2023-03-20T13:09:36.457Z,16.80
2023-03-20T13:12:09.275Z,16.80
2023-03-20T13:14:54.943Z,16.80
2023-03-20T13:17:46.842Z,16.80
2023-03-20T13:20:22.103Z,16.80
2023-03-20T13:23:00.922Z,16.80
2023-03-20T13:25:53.848Z,16.90
2023-03-20T13:28:31.536Z,16.90
2023-03-20T13:31:10.342Z,16.90
2023-03-20T13:33:52.342Z,16.90
2023-03-20T13:38:53.460Z,16.80
2023-03-20T13:41:23.210Z,16.90
2023-03-20T13:43:57.325Z,16.90
2023-03-20T13:46:29.456Z,16.90
2023-03-20T13:49:02.574Z,16.90
2023-03-20T13:51:39.881Z,16.80
2023-03-20T13:54:18.695Z,16.80
2023-03-20T13:57:12.760Z,16.80
2023-03-20T14:00:08.358Z,16.80
2023-03-20T14:02:50.560Z,16.80
2023-03-20T14:05:23.268Z,16.80
2023-03-20T14:07:56.328Z,16.80
2023-03-20T14:13:20.135Z,16.90
2023-03-20T14:15:55.001Z,17.00
2023-03-20T14:18:25.029Z,17.10
2023-03-20T14:21:03.081Z,17.10
2023-03-20T14:23:38.713Z,17.10
2023-03-20T14:26:19.164Z,17.10
2023-03-20T14:28:54.771Z,17.20
2023-03-20T14:31:26.541Z,17.20
2023-03-20T14:33:59.605Z,17.20
2023-03-20T14:36:29.954Z,17.10
2023-03-20T14:39:14.182Z,17.20
2023-03-20T14:42:18.850Z,17.10
2023-03-20T14:45:20.380Z,17.10
2023-03-20T14:48:08.216Z,17.20
2023-03-20T14:50:47.056Z,17.10
2023-03-20T14:53:20.080Z,15.20
2023-03-20T14:55:51.309Z,13.20
2023-03-20T14:58:43.286Z,17.10
2023-03-20T15:01:24.714Z,17.10
2023-03-20T15:03:57.494Z,17.10
2023-03-20T15:06:26.962Z,17.20
2023-03-20T15:09:00.789Z,17.30
2023-03-20T15:13:58.223Z,17.40
2023-03-20T15:16:33.080Z,14.90
2023-03-20T15:19:00.881Z,17.60
2023-03-20T15:21:31.185Z,17.60
2023-03-20T15:23:58.873Z,17.60
2023-03-20T15:26:27.086Z,17.60
2023-03-20T15:29:03.229Z,17.60
2023-03-20T15:31:33.129Z,17.60
2023-03-20T15:34:02.372Z,17.60
2023-03-20T15:36:32.816Z,17.60
2023-03-20T15:39:16.353Z,17.60
2023-03-20T15:41:48.003Z,17.50
2023-03-20T15:46:55.278Z,17.40
2023-03-20T15:49:23.292Z,17.20
2023-03-20T15:51:51.514Z,17.20
2023-03-20T15:56:49.963Z,17.00
2023-03-20T15:59:19.961Z,16.90
2023-03-20T16:01:49.676Z,16.80
2023-03-20T16:04:18.353Z,16.70
2023-03-20T16:06:52.517Z,16.70
2023-03-20T16:11:49.990Z,16.60
2023-03-20T16:14:22.258Z,16.60
2023-03-20T16:16:51.852Z,12.50
2023-03-20T16:22:12.799Z,16.40
2023-03-20T16:24:40.349Z,16.40
2023-03-20T16:27:10.878Z,16.30
2023-03-20T16:29:43.416Z,16.30
2023-03-20T16:32:40.935Z,16.10
2023-03-20T16:35:39.064Z,16.20
2023-03-20T16:38:19.686Z,16.10
2023-03-20T16:45:45.331Z,16.00
2023-03-20T16:50:42.008Z,15.90
2023-03-20T16:53:15.509Z,15.90
2023-03-20T16:55:46.173Z,15.90
2023-03-20T16:58:20.922Z,15.80
2023-03-20T17:03:18.961Z,15.70
2023-03-20T17:05:50.693Z,15.70
2023-03-20T17:08:31.208Z,15.70
2023-03-20T17:11:02.967Z,15.60
2023-03-20T17:13:32.906Z,15.60
2023-03-20T17:18:28.410Z,15.60
2023-03-20T17:23:23.486Z,15.50
2023-03-20T17:25:51.702Z,15.40
2023-03-20T17:28:23.145Z,15.40
2023-03-20T17:30:51.129Z,15.40
2023-03-20T17:33:20.936Z,15.40
2023-03-20T17:35:48.602Z,15.30
2023-03-20T17:38:18.761Z,15.30
2023-03-20T17:43:14.488Z,15.20
2023-03-20T17:45:42.654Z,15.20
2023-03-20T17:48:20.506Z,15.10
2023-03-20T17:50:52.633Z,15.10
2023-03-20T17:53:24.319Z,15.10
2023-03-20T17:55:52.612Z,15.00
2023-03-20T17:58:22.717Z,15.00
2023-03-20T18:00:53.976Z,15.00
2023-03-20T18:03:21.460Z,14.90
2023-03-20T18:05:50.238Z,14.90
2023-03-20T18:08:23.124Z,14.90
2023-03-20T18:10:53.389Z,14.90
2023-03-20T18:13:21.663Z,14.90
2023-03-20T18:15:49.836Z,14.80
2023-03-20T18:20:45.748Z,14.80
2023-03-20T18:28:20.517Z,14.80
2023-03-20T18:35:43.842Z,14.80
2023-03-20T18:38:13.723Z,14.80
2023-03-20T18:40:42.653Z,14.80
2023-03-20T18:43:10.818Z,14.80
2023-03-20T18:45:39.185Z,14.80
2023-03-20T18:48:07.191Z,14.80
2023-03-20T18:50:40.928Z,14.70
2023-03-20T18:53:09.862Z,14.80
2023-03-20T18:55:38.236Z,14.80
2023-03-20T18:58:06.354Z,14.80
2023-03-20T19:00:42.245Z,14.80
2023-03-20T19:03:12.639Z,14.80
2023-03-20T19:05:39.896Z,14.90
2023-03-20T19:10:43.928Z,14.90
2023-03-20T19:13:14.986Z,14.90
2023-03-20T19:15:43.184Z,14.90
2023-03-20T19:18:40.206Z,14.90
2023-03-20T19:21:07.060Z,15.00
2023-03-20T19:23:34.535Z,15.00
2023-03-20T19:28:40.742Z,15.00
2023-03-20T19:31:09.858Z,15.00
2023-03-20T19:33:38.737Z,15.00
2023-03-20T19:36:07.180Z,15.00
2023-03-20T19:38:34.746Z,15.00
2023-03-20T19:48:51.792Z,15.00
2023-03-20T19:51:23.416Z,15.00
2023-03-20T19:53:50.901Z,15.00
2023-03-20T19:56:20.155Z,15.00
2023-03-20T19:58:47.797Z,15.00
2023-03-20T20:01:24.198Z,15.00
2023-03-20T20:03:53.607Z,14.90
2023-03-20T20:11:21.307Z,14.90
2023-03-20T20:16:35.777Z,14.90
2023-03-20T20:19:02.921Z,14.90
2023-03-20T20:27:03.427Z,14.90
2023-03-20T20:32:05.996Z,14.90
2023-03-20T20:35:30.733Z,14.90
2023-03-20T20:40:10.569Z,14.90
2023-03-20T20:45:09.009Z,14.90
2023-03-20T20:55:10.815Z,14.90
2023-03-20T20:57:45.961Z,14.90
2023-03-20T21:00:14.444Z,14.90
2023-03-20T21:02:42.756Z,14.90
2023-03-20T21:05:12.093Z,14.90
2023-03-20T21:10:07.557Z,14.90
2023-03-20T21:17:59.993Z,14.90
2023-03-20T21:25:36.380Z,14.90
2023-03-20T21:30:34.312Z,14.90
2023-03-20T21:35:28.776Z,14.90
2023-03-20T21:40:43.555Z,14.90
2023-03-20T22:02:27.624Z,14.80
2023-03-20T22:17:03.386Z,14.70
2023-03-20T22:36:33.229Z,14.60
2023-03-20T22:42:06.743Z,14.50
2023-03-20T22:46:54.990Z,14.50
2023-03-20T22:52:11.178Z,14.50
2023-03-20T22:57:06.313Z,14.50
2023-03-20T22:59:33.210Z,14.50
2023-03-20T23:06:57.630Z,14.50
2023-03-20T23:09:24.570Z,14.50
2023-03-20T23:14:21.592Z,14.50
2023-03-20T23:16:49.349Z,14.50
2023-03-20T23:19:16.769Z,14.50
2023-03-20T23:31:33.830Z,14.50
2023-03-20T23:34:01.028Z,14.40
2023-03-20T23:36:36.334Z,14.40
2023-03-20T23:39:07.999Z,14.40
2023-03-20T23:49:17.112Z,14.40
2023-03-20T23:54:12.438Z,14.40
2023-03-20T23:59:18.640Z,14.40
